createdAt,value
2023-05-15T00:02:23.931Z,19.17
2023-05-15T00:04:51.163Z,16.88
2023-05-15T00:07:18.269Z,16.45
2023-05-15T00:09:45.408Z,14.18
2023-05-15T00:12:12.486Z,15.88
2023-05-15T00:14:39.551Z,21.17
2023-05-15T00:17:07.768Z,15.15
2023-05-15T00:19:34.858Z,22.83
2023-05-15T00:22:01.908Z,16.92
2023-05-15T00:24:28.998Z,18.60
2023-05-15T00:26:56.161Z,18.35
2023-05-15T00:29:23.914Z,17.13
2023-05-15T00:31:51.230Z,22.13
2023-05-15T00:34:18.494Z,19.45
2023-05-15T00:36:45.855Z,20.35
2023-05-15T00:39:13.030Z,21.48
2023-05-15T00:41:41.447Z,18.67
2023-05-15T00:44:10.189Z,18.30
2023-05-15T00:46:38.097Z,23.05
2023-05-15T00:49:05.609Z,18.73
2023-05-15T00:51:32.653Z,19.23
2023-05-15T00:54:00.334Z,18.98
2023-05-15T00:56:28.535Z,19.45
2023-05-15T00:58:55.943Z,23.00
2023-05-15T01:01:25.455Z,19.90
2023-05-15T01:03:52.715Z,19.42
2023-05-15T01:06:19.827Z,21.63
2023-05-15T01:08:47.779Z,19.98
2023-05-15T01:11:15.928Z,20.05
2023-05-15T01:13:43.414Z,27.98
2023-05-15T01:16:10.979Z,19.35
2023-05-15T01:18:38.372Z,18.38
2023-05-15T01:21:11.344Z,19.45
2023-05-15T01:23:55.269Z,23.95
2023-05-15T01:26:31.730Z,20.95
2023-05-15T01:29:16.903Z,21.45
2023-05-15T01:31:46.711Z,23.75
2023-05-15T01:34:15.060Z,23.88
2023-05-15T01:36:52.253Z,24.88
2023-05-15T01:39:23.147Z,16.27
2023-05-15T01:42:00.578Z,17.50
2023-05-15T01:44:34.877Z,16.85
2023-05-15T01:47:11.040Z,17.65
2023-05-15T01:49:39.045Z,18.58
2023-05-15T01:52:09.426Z,18.58
2023-05-15T01:54:37.037Z,17.60
2023-05-15T01:57:04.974Z,19.85
2023-05-15T01:59:32.684Z,22.35
2023-05-15T02:02:00.799Z,19.08
2023-05-15T02:04:28.152Z,19.27
2023-05-15T02:06:55.817Z,17.85
2023-05-15T02:09:23.469Z,16.95
2023-05-15T02:11:51.023Z,17.02
2023-05-15T02:14:18.212Z,18.58
2023-05-15T02:16:45.404Z,19.45
2023-05-15T02:19:12.535Z,18.38
2023-05-15T02:21:39.653Z,18.92
2023-05-15T02:24:06.836Z,19.77
2023-05-15T02:26:40.465Z,16.45
2023-05-15T02:29:07.525Z,17.42
2023-05-15T02:31:40.895Z,16.33
2023-05-15T02:34:11.608Z,15.75
2023-05-15T02:36:41.270Z,15.40
2023-05-15T02:39:08.561Z,17.20
2023-05-15T02:41:36.818Z,18.05
2023-05-15T02:44:04.081Z,19.25
2023-05-15T02:46:32.076Z,14.77
2023-05-15T02:48:59.367Z,17.73
2023-05-15T02:51:26.478Z,17.67
2023-05-15T02:53:54.411Z,17.58
2023-05-15T02:56:22.306Z,20.25
2023-05-15T02:58:49.695Z,19.48
2023-05-15T03:01:16.861Z,22.88
2023-05-15T03:03:43.974Z,21.88
2023-05-15T03:06:11.228Z,21.23
2023-05-15T03:08:38.305Z,19.58
2023-05-15T03:11:05.521Z,20.95
2023-05-15T03:13:32.644Z,19.83
2023-05-15T03:15:59.749Z,16.83
2023-05-15T03:18:26.860Z,17.58
2023-05-15T03:20:54.005Z,18.77
2023-05-15T03:23:21.188Z,21.25
2023-05-15T03:25:48.349Z,19.67
2023-05-15T03:28:15.599Z,18.88
2023-05-15T03:30:45.044Z,16.90
2023-05-15T03:33:12.222Z,22.23
2023-05-15T03:35:39.306Z,18.23
2023-05-15T03:38:06.386Z,20.08
2023-05-15T03:40:33.478Z,21.30
2023-05-15T03:43:00.559Z,20.25
2023-05-15T03:45:28.001Z,26.27
2023-05-15T03:47:55.421Z,22.55
2023-05-15T03:50:22.611Z,24.65
2023-05-15T03:52:49.720Z,25.92
2023-05-15T03:55:16.886Z,23.83
2023-05-15T03:57:43.982Z,23.70
2023-05-15T04:00:12.049Z,21.98
2023-05-15T04:02:39.558Z,26.60
2023-05-15T04:05:07.261Z,25.73
2023-05-15T04:07:35.387Z,24.42
2023-05-15T04:10:02.920Z,22.65
2023-05-15T04:12:30.370Z,23.25
2023-05-15T04:14:59.703Z,22.00
2023-05-15T04:17:27.056Z,19.20
2023-05-15T04:19:54.225Z,20.23
2023-05-15T04:22:21.363Z,21.80
2023-05-15T04:24:48.519Z,20.85
2023-05-15T04:27:16.073Z,19.60
2023-05-15T04:29:43.121Z,20.75
2023-05-15T04:32:10.400Z,24.30
2023-05-15T04:34:37.663Z,20.35
2023-05-15T04:37:04.911Z,20.83
2023-05-15T04:39:32.039Z,18.38
2023-05-15T04:41:59.147Z,20.55
2023-05-15T04:44:26.474Z,23.13
2023-05-15T04:46:53.585Z,18.98
2023-05-15T04:49:20.701Z,18.92
2023-05-15T04:51:47.757Z,18.55
2023-05-15T04:54:14.906Z,18.67
2023-05-15T04:56:41.975Z,20.20
2023-05-15T04:59:09.730Z,19.65
2023-05-15T05:01:37.454Z,17.52
2023-05-15T05:04:04.609Z,17.80
2023-05-15T05:06:31.822Z,16.48
2023-05-15T05:08:59.021Z,18.02
2023-05-15T05:11:26.108Z,16.45
2023-05-15T05:13:53.469Z,16.90
2023-05-15T05:16:20.740Z,18.55
2023-05-15T05:18:47.903Z,17.05
2023-05-15T05:21:15.036Z,15.23
2023-05-15T05:23:42.217Z,11.50
2023-05-15T05:26:09.346Z,11.27
2023-05-15T05:28:36.450Z,11.25
2023-05-15T05:31:03.924Z,13.25
2023-05-15T05:33:31.037Z,14.55
2023-05-15T05:35:58.090Z,14.60
2023-05-15T05:38:26.532Z,15.00
2023-05-15T05:40:53.687Z,12.95
2023-05-15T05:43:20.863Z,13.23
2023-05-15T05:45:48.456Z,10.27
2023-05-15T05:48:15.629Z,11.20
2023-05-15T05:50:42.766Z,15.05
2023-05-15T05:53:10.059Z,15.13
2023-05-15T05:55:37.265Z,15.52
2023-05-15T05:58:08.554Z,15.30
2023-05-15T06:00:41.788Z,22.33
2023-05-15T06:03:09.264Z,29.13
2023-05-15T06:05:36.462Z,26.60
2023-05-15T06:08:04.343Z,33.78
2023-05-15T06:10:31.410Z,24.77
2023-05-15T06:12:58.595Z,20.10
2023-05-15T06:15:26.381Z,20.13
2023-05-15T06:17:53.630Z,17.35
2023-05-15T06:20:21.891Z,10.80
2023-05-15T06:22:49.483Z,16.75
2023-05-15T06:25:16.733Z,16.60
2023-05-15T06:27:43.980Z,22.20
2023-05-15T06:30:11.521Z,14.40
2023-05-15T06:32:38.687Z,15.88
2023-05-15T06:35:05.984Z,13.20
2023-05-15T06:37:33.090Z,12.35
2023-05-15T06:40:00.471Z,10.18
2023-05-15T06:42:27.623Z,10.23
2023-05-15T06:44:54.765Z,15.65
2023-05-15T06:47:21.943Z,11.95
2023-05-15T06:49:49.086Z,10.98
2023-05-15T06:52:16.300Z,11.35
2023-05-15T06:54:43.449Z,8.52
2023-05-15T06:57:10.557Z,9.70
2023-05-15T06:59:37.655Z,10.55
2023-05-15T07:02:04.934Z,13.60
2023-05-15T07:04:32.185Z,10.38
2023-05-15T07:06:59.332Z,10.25
2023-05-15T07:09:26.444Z,7.72
2023-05-15T07:11:53.536Z,6.85
2023-05-15T07:14:20.661Z,9.13
2023-05-15T07:16:47.769Z,8.20
2023-05-15T07:19:18.340Z,8.75
2023-05-15T07:21:45.590Z,13.68
2023-05-15T07:24:12.703Z,9.77
2023-05-15T07:26:50.335Z,7.75
2023-05-15T07:29:25.124Z,7.53
2023-05-15T07:31:52.290Z,9.45
2023-05-15T07:34:19.435Z,7.55
2023-05-15T07:36:46.517Z,9.57
2023-05-15T07:39:13.862Z,15.52
2023-05-15T07:41:41.065Z,7.13
2023-05-15T07:44:08.303Z,7.90
2023-05-15T07:46:35.676Z,9.68
2023-05-15T07:49:02.879Z,7.75
2023-05-15T07:51:30.061Z,9.15
2023-05-15T07:53:57.190Z,9.43
2023-05-15T07:56:24.320Z,6.88
2023-05-15T07:58:51.440Z,10.75
2023-05-15T08:01:18.532Z,9.57
2023-05-15T08:03:45.642Z,10.35
2023-05-15T08:06:12.803Z,6.32
2023-05-15T08:08:39.932Z,8.60
2023-05-15T08:11:07.007Z,8.48
2023-05-15T08:13:34.186Z,8.18
2023-05-15T08:16:01.450Z,8.32
2023-05-15T08:18:28.578Z,10.52
2023-05-15T08:20:58.706Z,8.50
2023-05-15T08:23:25.761Z,8.88
2023-05-15T08:25:52.885Z,6.63
2023-05-15T08:28:20.040Z,6.40
2023-05-15T08:30:47.134Z,6.38
2023-05-15T08:33:14.275Z,9.63
2023-05-15T08:35:41.630Z,15.27
2023-05-15T08:38:08.737Z,6.60
2023-05-15T08:40:39.716Z,7.20
2023-05-15T08:43:15.066Z,6.97
2023-05-15T08:45:42.478Z,6.57
2023-05-15T08:48:11.802Z,14.05
2023-05-15T08:53:06.095Z,7.65
2023-05-15T08:55:33.457Z,6.05
2023-05-15T08:58:01.264Z,6.72
2023-05-15T09:00:28.656Z,7.50
2023-05-15T09:02:55.865Z,7.93
2023-05-15T09:05:23.081Z,5.25
2023-05-15T09:07:51.745Z,7.60
2023-05-15T09:10:20.009Z,8.18
2023-05-15T09:12:47.156Z,6.25
2023-05-15T09:15:18.182Z,7.57
2023-05-15T09:17:45.969Z,7.68
2023-05-15T09:20:27.012Z,6.22
2023-05-15T09:22:54.417Z,7.88
2023-05-15T09:25:40.534Z,5.75
2023-05-15T09:28:26.462Z,9.85
2023-05-15T09:30:58.039Z,9.13
2023-05-15T09:33:35.623Z,5.07
2023-05-15T09:36:03.855Z,8.18
2023-05-15T09:38:33.385Z,7.00
2023-05-15T09:41:04.525Z,6.25
2023-05-15T09:43:35.463Z,6.78
2023-05-15T09:46:02.760Z,8.13
2023-05-15T09:48:30.382Z,4.88
2023-05-15T09:50:57.781Z,9.63
2023-05-15T09:53:25.375Z,7.40
2023-05-15T09:55:54.618Z,9.95
2023-05-15T09:58:21.742Z,11.18
2023-05-15T10:00:49.695Z,12.63
2023-05-15T10:03:18.586Z,8.77
2023-05-15T10:05:45.775Z,8.77
2023-05-15T10:08:14.878Z,6.43
2023-05-15T10:10:42.149Z,5.55
2023-05-15T10:13:10.147Z,7.57
2023-05-15T10:15:37.877Z,6.50
2023-05-15T10:18:05.352Z,5.10
2023-05-15T10:20:35.586Z,6.22
2023-05-15T10:23:04.851Z,8.02
2023-05-15T10:25:41.350Z,4.63
2023-05-15T10:28:10.221Z,6.80
2023-05-15T10:30:37.544Z,4.45
2023-05-15T10:33:08.320Z,7.13
2023-05-15T10:35:36.359Z,5.80
2023-05-15T10:38:05.151Z,11.00
2023-05-15T10:40:33.170Z,9.80
2023-05-15T10:43:03.892Z,8.18
2023-05-15T10:45:31.781Z,9.43
2023-05-15T10:47:59.603Z,10.68
2023-05-15T10:50:27.891Z,7.70
2023-05-15T10:52:55.922Z,7.82
2023-05-15T10:55:23.303Z,8.10
2023-05-15T10:57:50.433Z,7.45
2023-05-15T11:00:24.014Z,8.35
2023-05-15T11:02:53.976Z,6.38
2023-05-15T11:05:21.174Z,9.15
2023-05-15T11:08:09.832Z,7.75
2023-05-15T11:10:38.410Z,8.50
2023-05-15T11:13:05.757Z,9.82
2023-05-15T11:15:42.665Z,10.13
2023-05-15T11:18:10.036Z,6.43
2023-05-15T11:21:03.624Z,11.75
2023-05-15T11:23:38.391Z,7.97
2023-05-15T11:26:06.291Z,5.60
2023-05-15T11:28:41.545Z,6.20
2023-05-15T11:31:09.130Z,6.13
2023-05-15T11:33:38.737Z,7.97
2023-05-15T11:36:06.983Z,6.72
2023-05-15T11:38:38.586Z,8.57
2023-05-15T11:41:17.037Z,9.13
2023-05-15T11:43:44.181Z,10.70
2023-05-15T11:46:12.817Z,5.28
2023-05-15T11:48:44.433Z,9.18
2023-05-15T11:51:21.842Z,8.05
2023-05-15T11:53:52.454Z,5.72
2023-05-15T11:56:24.327Z,5.43
2023-05-15T11:58:51.876Z,7.50
2023-05-15T12:01:19.070Z,5.43
2023-05-15T12:03:48.952Z,4.97
2023-05-15T12:06:16.748Z,6.43
2023-05-15T12:08:44.025Z,9.68
2023-05-15T12:11:11.429Z,5.53
2023-05-15T12:13:38.535Z,9.50
2023-05-15T12:16:05.927Z,9.50
2023-05-15T12:18:33.495Z,6.68
2023-05-15T12:21:00.974Z,9.93
2023-05-15T12:23:28.834Z,7.85
2023-05-15T12:25:59.480Z,5.35
2023-05-15T12:28:27.390Z,9.52
2023-05-15T12:30:55.307Z,5.82
2023-05-15T12:33:23.439Z,7.40
2023-05-15T12:35:53.959Z,6.13
2023-05-15T12:38:22.516Z,8.32
2023-05-15T12:40:53.447Z,7.55
2023-05-15T12:43:21.059Z,6.70
2023-05-15T12:45:52.466Z,6.72
2023-05-15T12:48:19.603Z,9.05
2023-05-15T12:50:46.831Z,6.00
2023-05-15T12:53:15.740Z,5.45
2023-05-15T12:55:44.221Z,6.88
2023-05-15T12:58:12.337Z,6.38
2023-05-15T13:00:41.151Z,8.93
2023-05-15T13:03:12.256Z,9.63
2023-05-15T13:05:40.201Z,8.63
2023-05-15T13:08:07.588Z,7.25
2023-05-15T13:10:35.571Z,7.95
2023-05-15T13:13:02.754Z,6.28
2023-05-15T13:15:31.054Z,4.35
2023-05-15T13:18:05.462Z,8.77
2023-05-15T13:20:42.829Z,8.32
2023-05-15T13:23:10.715Z,5.15
2023-05-15T13:25:37.778Z,4.50
2023-05-15T13:28:06.110Z,4.43
2023-05-15T13:30:34.309Z,4.93
2023-05-15T13:33:01.943Z,6.50
2023-05-15T13:35:29.190Z,5.85
2023-05-15T13:37:56.863Z,6.82
2023-05-15T13:40:24.237Z,5.85
2023-05-15T13:42:51.665Z,5.05
2023-05-15T13:45:18.812Z,8.75
2023-05-15T13:47:46.062Z,7.40
2023-05-15T13:50:14.264Z,5.28
2023-05-15T13:52:41.899Z,6.07
2023-05-15T13:55:12.487Z,6.72
2023-05-15T13:57:41.032Z,7.47
2023-05-15T14:00:12.357Z,5.05
2023-05-15T14:02:45.939Z,6.47
2023-05-15T14:05:14.245Z,5.85
2023-05-15T14:07:41.601Z,4.68
2023-05-15T14:10:09.103Z,7.65
2023-05-15T14:12:36.814Z,6.25
2023-05-15T14:15:04.033Z,4.70
2023-05-15T14:17:31.235Z,9.50
2023-05-15T14:19:58.401Z,4.80
2023-05-15T14:22:25.569Z,5.75
2023-05-15T14:24:53.303Z,7.35
2023-05-15T14:27:21.122Z,5.90
2023-05-15T14:29:49.050Z,6.55
2023-05-15T14:32:17.167Z,5.18
2023-05-15T14:34:44.592Z,9.48
2023-05-15T14:37:11.805Z,7.25
2023-05-15T14:39:39.169Z,7.63
2023-05-15T14:42:06.538Z,6.82
2023-05-15T14:44:35.182Z,5.78
2023-05-15T14:47:09.137Z,6.55
2023-05-15T14:49:36.764Z,6.30
2023-05-15T14:52:04.679Z,4.55
2023-05-15T14:54:32.146Z,7.28
2023-05-15T14:56:59.264Z,6.07
2023-05-15T14:59:26.730Z,7.93
2023-05-15T15:01:53.867Z,6.20
2023-05-15T15:04:21.026Z,5.53
2023-05-15T15:06:48.317Z,4.93
2023-05-15T15:09:15.448Z,5.60
2023-05-15T15:11:42.632Z,5.30
2023-05-15T15:14:09.745Z,5.50
2023-05-15T15:16:36.908Z,6.28
2023-05-15T15:19:04.098Z,4.20
2023-05-15T15:21:31.284Z,6.88
2023-05-15T15:23:58.439Z,6.18
2023-05-15T15:26:25.867Z,4.88
2023-05-15T15:28:53.000Z,6.47
2023-05-15T15:31:21.052Z,6.65
2023-05-15T15:33:48.315Z,4.55
2023-05-15T15:36:15.393Z,6.30
2023-05-15T15:38:43.766Z,9.13
2023-05-15T15:41:10.942Z,5.55
2023-05-15T15:43:38.029Z,6.15
2023-05-15T15:46:05.312Z,7.05
2023-05-15T15:48:32.435Z,6.50
2023-05-15T15:50:59.608Z,6.78
2023-05-15T15:53:26.716Z,8.32
2023-05-15T15:55:53.894Z,7.30
2023-05-15T15:58:20.951Z,6.20
2023-05-15T16:00:48.061Z,6.85
2023-05-15T16:03:15.319Z,6.57
2023-05-15T16:05:42.459Z,5.65
2023-05-15T16:08:09.598Z,4.85
2023-05-15T16:10:36.659Z,5.25
2023-05-15T16:13:03.815Z,6.15
2023-05-15T16:15:30.933Z,4.47
2023-05-15T16:17:58.153Z,4.18
2023-05-15T16:20:27.715Z,5.10
2023-05-15T16:22:54.982Z,5.53
2023-05-15T16:25:22.150Z,5.85
2023-05-15T16:27:49.251Z,6.32
2023-05-15T16:30:16.457Z,9.48
2023-05-15T16:32:43.668Z,5.97
2023-05-15T16:35:10.822Z,8.65
2023-05-15T16:37:38.199Z,7.70
2023-05-15T16:40:05.599Z,5.78
2023-05-15T16:42:36.539Z,7.72
2023-05-15T16:45:03.949Z,10.00
2023-05-15T16:47:31.037Z,7.47
2023-05-15T16:49:58.208Z,10.23
2023-05-15T16:52:25.392Z,5.97
2023-05-15T16:54:52.505Z,6.45
2023-05-15T16:57:20.224Z,5.60
2023-05-15T16:59:47.912Z,4.97
2023-05-15T17:02:15.046Z,4.80
2023-05-15T17:04:42.233Z,8.73
2023-05-15T17:07:09.329Z,5.72
2023-05-15T17:09:38.324Z,7.20
2023-05-15T17:12:05.739Z,6.10
2023-05-15T17:14:32.866Z,6.18
2023-05-15T17:16:59.943Z,6.18
2023-05-15T17:19:27.133Z,5.07
2023-05-15T17:21:54.277Z,9.50
2023-05-15T17:24:21.355Z,5.47
2023-05-15T17:26:48.430Z,8.93
2023-05-15T17:29:15.589Z,4.50
2023-05-15T17:31:42.678Z,6.82
2023-05-15T17:34:09.838Z,9.50
2023-05-15T17:36:37.120Z,7.22
2023-05-15T17:39:04.336Z,7.22
2023-05-15T17:41:31.391Z,4.30
2023-05-15T17:43:58.518Z,7.65
2023-05-15T17:46:25.595Z,6.65
2023-05-15T17:48:53.215Z,6.75
2023-05-15T17:51:20.409Z,8.75
2023-05-15T17:53:48.053Z,7.45
2023-05-15T17:56:15.257Z,4.97
2023-05-15T17:58:42.361Z,9.40
2023-05-15T18:01:09.461Z,6.50
2023-05-15T18:03:36.558Z,9.25
2023-05-15T18:06:04.428Z,8.05
2023-05-15T18:08:31.500Z,5.88
2023-05-15T18:10:58.693Z,6.78
2023-05-15T18:13:25.941Z,7.85
2023-05-15T18:15:53.122Z,6.82
2023-05-15T18:18:20.203Z,10.18
2023-05-15T18:20:47.298Z,6.28
2023-05-15T18:23:14.355Z,9.10
2023-05-15T18:25:41.458Z,10.32
2023-05-15T18:28:08.592Z,7.50
2023-05-15T18:30:35.759Z,7.10
2023-05-15T18:33:02.921Z,5.05
2023-05-15T18:35:30.062Z,6.65
2023-05-15T18:37:57.106Z,5.72
2023-05-15T18:40:26.346Z,7.60
2023-05-15T18:42:56.938Z,6.78
2023-05-15T18:45:24.594Z,9.35
2023-05-15T18:47:55.153Z,6.00
2023-05-15T18:50:24.950Z,7.05
2023-05-15T18:52:52.285Z,5.43
2023-05-15T18:55:19.457Z,7.38
2023-05-15T18:57:46.588Z,6.35
2023-05-15T19:00:16.822Z,5.00
2023-05-15T19:02:48.705Z,6.05
2023-05-15T19:05:15.991Z,6.25
2023-05-15T19:07:43.282Z,7.68
2023-05-15T19:10:10.854Z,8.05
2023-05-15T19:12:37.948Z,7.32
2023-05-15T19:15:05.239Z,7.25
2023-05-15T19:17:32.418Z,4.30
2023-05-15T19:19:59.522Z,4.47
2023-05-15T19:22:26.595Z,4.53
2023-05-15T19:24:53.770Z,5.15
2023-05-15T19:27:20.872Z,8.32
2023-05-15T19:29:47.996Z,6.78
2023-05-15T19:32:15.276Z,5.80
2023-05-15T19:34:42.590Z,5.57
2023-05-15T19:37:09.695Z,5.05
2023-05-15T19:39:36.948Z,7.90
2023-05-15T19:42:04.096Z,7.82
2023-05-15T19:44:31.154Z,8.70
2023-05-15T19:46:58.257Z,7.78
2023-05-15T19:49:25.334Z,7.47
2023-05-15T19:51:52.449Z,7.05
2023-05-15T19:54:19.572Z,6.28
2023-05-15T19:56:46.754Z,4.22
2023-05-15T19:59:13.860Z,8.55
2023-05-15T20:01:40.980Z,5.82
2023-05-15T20:04:08.130Z,8.65
2023-05-15T20:06:35.296Z,7.47
2023-05-15T20:09:02.434Z,8.38
2023-05-15T20:11:29.586Z,5.35
2023-05-15T20:13:56.683Z,10.00
2023-05-15T20:16:23.875Z,6.32
2023-05-15T20:18:54.542Z,9.00
2023-05-15T20:21:22.078Z,6.93
2023-05-15T20:23:49.340Z,8.00
2023-05-15T20:26:16.481Z,6.70
2023-05-15T20:28:45.207Z,8.13
2023-05-15T20:31:12.693Z,8.43
2023-05-15T20:33:39.926Z,9.60
2023-05-15T20:36:07.115Z,9.70
2023-05-15T20:38:35.273Z,5.35
2023-05-15T20:41:02.354Z,9.27
2023-05-15T20:43:29.408Z,9.13
2023-05-15T20:45:57.045Z,7.10
2023-05-15T20:48:24.178Z,5.05
2023-05-15T20:50:53.013Z,7.75
2023-05-15T20:53:20.193Z,7.95
2023-05-15T20:55:47.303Z,5.82
2023-05-15T20:58:14.406Z,7.72
2023-05-15T21:00:41.601Z,6.68
2023-05-15T21:03:09.382Z,7.15
2023-05-15T21:05:36.572Z,5.53
2023-05-15T21:08:04.310Z,9.82
2023-05-15T21:10:31.477Z,6.38
2023-05-15T21:12:59.555Z,9.73
2023-05-15T21:15:26.772Z,8.63
2023-05-15T21:17:53.967Z,8.65
2023-05-15T21:20:21.249Z,11.40
2023-05-15T21:22:48.323Z,8.32
2023-05-15T21:25:16.297Z,8.48
2023-05-15T21:27:43.410Z,5.68
2023-05-15T21:30:11.087Z,7.10
2023-05-15T21:32:38.251Z,4.10
2023-05-15T21:35:05.574Z,8.98
2023-05-15T21:37:32.734Z,5.30
2023-05-15T21:39:59.791Z,5.72
2023-05-15T21:42:26.852Z,7.95
2023-05-15T21:44:54.076Z,8.02
2023-05-15T21:47:21.213Z,6.20
2023-05-15T21:49:48.628Z,10.35
2023-05-15T21:52:15.771Z,6.45
2023-05-15T21:54:43.848Z,10.05
2023-05-15T21:57:11.089Z,10.52
2023-05-15T21:59:38.205Z,7.10
2023-05-15T22:02:06.216Z,8.15
2023-05-15T22:04:33.403Z,12.88
2023-05-15T22:07:00.825Z,7.85
2023-05-15T22:09:28.061Z,5.65
2023-05-15T22:11:55.151Z,9.63
2023-05-15T22:14:22.237Z,7.10
2023-05-15T22:16:49.361Z,6.38
2023-05-15T22:19:31.597Z,7.18
2023-05-15T22:22:00.192Z,7.22
2023-05-15T22:24:27.535Z,7.53
2023-05-15T22:26:54.587Z,8.73
2023-05-15T22:29:21.908Z,6.47
2023-05-15T22:31:49.059Z,5.40
2023-05-15T22:34:16.174Z,6.80
2023-05-15T22:36:43.278Z,9.07
2023-05-15T22:39:10.372Z,7.22
2023-05-15T22:41:37.448Z,5.38
2023-05-15T22:44:05.100Z,6.57
2023-05-15T22:46:32.239Z,6.60
2023-05-15T22:49:00.522Z,8.55
2023-05-15T22:51:27.672Z,6.35
2023-05-15T22:53:54.779Z,7.00
2023-05-15T22:56:21.957Z,8.65
2023-05-15T22:58:49.136Z,8.40
2023-05-15T23:01:16.446Z,6.32
2023-05-15T23:03:43.506Z,8.38
2023-05-15T23:06:10.713Z,7.00
2023-05-15T23:08:37.841Z,8.38
2023-05-15T23:11:04.990Z,7.32
2023-05-15T23:13:32.086Z,5.57
2023-05-15T23:15:59.259Z,8.05
2023-05-15T23:18:26.487Z,8.15
2023-05-15T23:20:53.893Z,5.78
2023-05-15T23:23:21.098Z,8.20
2023-05-15T23:25:48.553Z,9.30
2023-05-15T23:28:15.625Z,5.82
2023-05-15T23:30:42.679Z,7.90
2023-05-15T23:33:09.960Z,6.63
2023-05-15T23:35:37.137Z,7.22
2023-05-15T23:38:04.223Z,6.95
2023-05-15T23:40:31.534Z,7.85
2023-05-15T23:42:58.627Z,8.70
2023-05-15T23:45:25.682Z,7.68
2023-05-15T23:47:52.835Z,9.32
2023-05-15T23:50:21.197Z,6.88
2023-05-15T23:52:48.289Z,7.47
2023-05-15T23:55:16.068Z,6.35
2023-05-15T23:57:43.668Z,6.20
